Aeroporto :







RITROVATECI SU...

 
LOGIN :

Iscrizione | Disclaimer

   EN    FR    IT 

 









Sommario :    VFR   VFR Marginale   IFR   IFR Intensivo   IFR Molto Intensivo
Visibilità : 
Base nubi : 
>= 8 km
>= 3000ft
5 / 8 km
1000 / 3000 ft
1500m / 5 km
500 / 1000 ft
800 / 1500m
200 / 500 ft
< 800m
< 200 ft
Simboli :   Temporali  Nebbia  Neve Forte  Precipitazioni Forti  Vento > 20 kt






- Altitudine del aeroporto : 121 ft
- Codice IATA : YBX


CYBX - Lourdes De Blanc Sablon

ULTIMO METAR :
  • 141300Z 28018G27KT 15SM FEW020 M05/M12 A3008 RMK SC1 SC TR SLP191

METARs OBSOLETI :
  • 141200Z 27016G26KT 15SM FEW015 M06/M12 A3004 RMK SC1 SC TR PRESRR SLP176
  • 141100Z 28019G29KT 15SM FEW015 M06/M12 A2996 RMK SC1 SC TR PRESRR SLP151

TAF AMD TAF CYBX
Valido dal 14 a 10 ore il 14 a 20 ore UTC


141004Z 1410/1420 29018G28KT P6SM FEW030
BECMG 1416/1418 26015G25KT RMK NXT FCST BY 141400Z



MetMap, La meteo Aeronautica in un colpo d'occhio ! - Copyright ORBIFLY Dicembre 2007 - Disclaimer

ORBIFLY MET'MAP TEAM :

Programmazione e sviluppo : Alexandra Zaïnal
Concezione e sviluppo : Baudouin d'Aumeries
Co-Programmazione e sviluppo : Marc-Olivier Méhu
Supporto tecnico e logistico : Manuel Goepfert
Aiuto per la traduzione : Arnaldo La Scala

Contatto : metmap@orbifly.com




FONTI E CREDITI :

   NOAA